Time;durP1;ratioP1;P1;durP2;ratioP2;P2;SDS_P1;SDS_P2;PMS_P1;PMS_P2;Temp;Humidity;BMP_temperature;BMP_pressure;BME280_temperature;BME280_humidity;BME280_pressure;Samples;Min_cycle;Max_cycle;Signal;HPM_P1;HPM_P2
2024/04/05 00:02:07;;;;;;;16.92;5.00;;;;;;;13.67;100.00;100927.09;5274422;28;20040;-79
2024/04/05 00:04:39;;;;;;;15.02;4.00;;;;;;;13.69;100.00;100919.91;5271980;28;20059;-79
2024/04/05 00:07:12;;;;;;;16.58;4.03;;;;;;;13.65;100.00;100910.63;5272388;28;20036;-79
2024/04/05 00:09:44;;;;;;;13.25;3.88;;;;;;;13.71;100.00;100896.88;5270519;28;20494;-79
2024/04/05 00:12:16;;;;;;;20.50;5.68;;;;;;;13.68;100.00;100893.72;5272912;28;20375;-79
2024/04/05 00:14:52;;;;;;;16.80;4.82;;;;;;;13.75;100.00;100895.63;5273761;28;20044;-78
2024/04/05 00:17:24;;;;;;;14.93;3.58;;;;;;;13.59;100.00;100896.25;5269784;28;20043;-78
2024/04/05 00:19:56;;;;;;;16.02;3.85;;;;;;;13.66;100.00;100912.28;5272286;28;20448;-79
2024/04/05 00:22:28;;;;;;;13.63;3.45;;;;;;;13.60;100.00;100910.28;5253541;28;20033;-79
2024/04/05 00:25:00;;;;;;;16.58;3.85;;;;;;;13.63;100.00;100915.22;5273134;28;20045;-78
2024/04/05 00:27:32;;;;;;;14.95;3.30;;;;;;;13.65;100.00;100915.91;5253679;28;20040;-79
2024/04/05 00:30:07;;;;;;;18.17;4.13;;;;;;;13.74;100.00;100922.91;5273166;28;20032;-78
2024/04/05 00:32:39;;;;;;;11.40;3.70;;;;;;;13.66;100.00;100927.25;5271206;28;20457;-78
2024/04/05 00:35:11;;;;;;;20.60;4.45;;;;;;;13.67;100.00;100924.47;5271994;28;20032;-79
2024/04/05 00:37:42;;;;;;;14.88;5.07;;;;;;;13.69;100.00;100922.53;5271240;28;20043;-78
2024/04/05 00:40:15;;;;;;;16.80;4.50;;;;;;;13.60;100.00;100905.81;5271925;28;20551;-79
2024/04/05 00:42:49;;;;;;;14.02;4.13;;;;;;;13.73;100.00;100917.78;5253088;28;20039;-78
2024/04/05 00:45:21;;;;;;;14.25;3.58;;;;;;;13.67;100.00;100902.59;5269627;28;20468;-79
2024/04/05 00:47:52;;;;;;;13.90;3.60;;;;;;;13.66;100.00;100912.28;5271855;28;20040;-79
2024/04/05 00:50:25;;;;;;;13.52;4.28;;;;;;;13.65;100.00;100907.19;5251282;28;20051;-78
2024/04/05 00:52:59;;;;;;;16.98;4.55;;;;;;;13.71;100.00;100909.19;5272581;28;20043;-78
2024/04/05 00:55:33;;;;;;;15.55;4.20;;;;;;;13.67;100.00;100899.94;5270769;28;20079;-78
2024/04/05 00:58:06;;;;;;;17.75;4.72;;;;;;;13.67;100.00;100903.41;5270664;28;20028;-78
2024/04/05 01:00:38;;;;;;;;;;;;;;;14.43;100.00;100902.09;5272933;28;20051;-79
2024/04/05 01:03:10;;;;;;;18.30;3.70;;;;;;;13.72;100.00;100893.28;5254797;28;19939;-79
2024/04/05 01:05:42;;;;;;;13.85;3.67;;;;;;;13.63;100.00;100889.72;5272623;28;20028;-79
2024/04/05 01:08:16;;;;;;;14.77;4.07;;;;;;;13.63;100.00;100886.25;5275979;28;20036;-79
2024/04/05 01:10:51;;;;;;;18.13;3.95;;;;;;;13.62;100.00;100892.50;5282871;28;20465;-78
2024/04/05 01:13:23;;;;;;;16.23;4.40;;;;;;;13.48;100.00;100874.56;5283982;28;20035;-79
2024/04/05 01:15:55;;;;;;;21.13;4.43;;;;;;;13.53;100.00;100885.50;5263600;28;20033;-78
2024/04/05 01:18:27;;;;;;;18.55;4.90;;;;;;;13.50;100.00;100894.53;5277942;28;20039;-79
2024/04/05 01:21:01;;;;;;;16.00;4.13;;;;;;;13.47;100.00;100889.53;5279199;28;20478;-79
2024/04/05 01:23:41;;;;;;;18.25;4.70;;;;;;;13.57;100.00;100898.22;5261044;28;20405;-78
2024/04/05 01:26:12;;;;;;;13.32;3.75;;;;;;;13.47;100.00;100886.09;5279586;28;20409;-79
2024/04/05 01:28:44;;;;;;;16.65;4.90;;;;;;;13.47;100.00;100880.81;5277337;28;20032;-80
2024/04/05 01:31:16;;;;;;;19.00;4.78;;;;;;;13.44;100.00;100881.13;5256847;28;20059;-79
2024/04/05 01:33:48;;;;;;;13.18;4.45;;;;;;;13.43;100.00;100879.47;5275523;28;20101;-79
2024/04/05 01:36:20;;;;;;;12.85;4.03;;;;;;;13.44;100.00;100875.84;5273041;28;20429;-79
2024/04/05 01:38:52;;;;;;;16.48;3.65;;;;;;;13.39;100.00;100871.03;5274786;28;20036;-80
2024/04/05 01:41:24;;;;;;;15.82;3.78;;;;;;;13.46;100.00;100884.44;5273043;28;20024;-80
2024/04/05 01:43:56;;;;;;;11.73;4.13;;;;;;;13.44;100.00;100897.72;5254508;28;20052;-80
2024/04/05 01:46:28;;;;;;;15.13;3.67;;;;;;;13.43;100.00;100895.25;5255341;28;20055;-79
2024/04/05 01:49:00;;;;;;;18.27;4.65;;;;;;;13.41;100.00;100895.41;5272830;28;20041;-79
2024/04/05 01:51:32;;;;;;;16.55;4.65;;;;;;;13.37;100.00;100876.47;5253886;28;20044;-79
2024/04/05 01:54:03;;;;;;;15.75;4.65;;;;;;;13.39;100.00;100878.94;5274228;28;20405;-80
2024/04/05 01:56:35;;;;;;;11.80;3.10;;;;;;;13.36;100.00;100880.03;5273210;28;20028;-79
2024/04/05 01:59:07;;;;;;;15.32;3.55;;;;;;;13.32;100.00;100881.31;5274025;28;20036;-80
2024/04/05 02:01:39;;;;;;;16.13;4.03;;;;;;;13.36;100.00;100882.69;5254851;28;20142;-79
2024/04/05 02:04:14;;;;;;;10.77;3.33;;;;;;;13.32;100.00;100865.53;5256451;28;20037;-80
2024/04/05 02:06:46;;;;;;;14.23;3.72;;;;;;;13.23;100.00;100862.94;5273567;28;20055;-80
2024/04/05 02:09:17;;;;;;;17.40;4.30;;;;;;;13.20;100.00;100861.41;5255138;28;20036;-79
2024/04/05 02:11:49;;;;;;;17.25;4.20;;;;;;;13.24;100.00;100864.63;5273684;28;20030;-79
2024/04/05 02:14:21;;;;;;;16.40;4.25;;;;;;;13.21;100.00;100862.25;5273272;28;20028;-79
2024/04/05 02:16:55;;;;;;;17.65;4.20;;;;;;;13.24;100.00;100870.69;5255186;28;20040;-79
2024/04/05 02:19:27;;;;;;;14.10;3.70;;;;;;;13.23;100.00;100878.72;5255373;28;20798;-80
2024/04/05 02:21:59;;;;;;;14.43;4.50;;;;;;;13.26;100.00;100876.66;5255302;28;20589;-79
2024/04/05 02:24:32;;;;;;;13.93;3.75;;;;;;;13.25;100.00;100874.16;5273527;28;20489;-79
2024/04/05 02:27:04;;;;;;;15.65;3.80;;;;;;;13.27;100.00;100875.69;5270368;28;20523;-79
2024/04/05 02:29:36;;;;;;;16.17;3.80;;;;;;;13.26;100.00;100884.56;5268114;28;20036;-79
2024/04/05 02:32:08;;;;;;;17.55;4.20;;;;;;;13.25;100.00;100887.31;5271907;28;20029;-79
2024/04/05 02:34:40;;;;;;;15.95;3.85;;;;;;;13.27;100.00;100894.09;5270779;28;20028;-79
2024/04/05 02:37:12;;;;;;;17.60;5.18;;;;;;;13.28;100.00;100892.28;5271294;28;20035;-79
2024/04/05 02:39:44;;;;;;;20.23;4.43;;;;;;;13.31;100.00;100892.00;5253090;28;20256;-79
2024/04/05 02:42:18;;;;;;;17.95;4.45;;;;;;;13.42;100.00;100885.72;5254562;28;20382;-79
2024/04/05 02:44:51;;;;;;;16.88;4.05;;;;;;;13.25;100.00;100867.09;5273494;28;20024;-79
2024/04/05 02:47:22;;;;;;;15.05;4.10;;;;;;;13.35;100.00;100886.28;5272454;28;20220;-79
2024/04/05 02:49:54;;;;;;;16.73;4.05;;;;;;;13.36;100.00;100881.84;5273487;28;20032;-79
2024/04/05 02:52:26;;;;;;;15.48;4.43;;;;;;;13.43;100.00;100887.38;5272006;28;20028;-79
2024/04/05 02:54:58;;;;;;;15.13;4.30;;;;;;;13.44;100.00;100886.38;5272029;28;20040;-80
2024/04/05 02:57:31;;;;;;;12.65;3.08;;;;;;;13.43;100.00;100887.38;5272320;28;20055;-78
2024/04/05 03:00:03;;;;;;;17.20;4.55;;;;;;;13.49;100.00;100884.16;5268257;28;20505;-79
2024/04/05 03:02:35;;;;;;;14.97;4.03;;;;;;;13.54;100.00;100877.44;5274190;28;20080;-79
2024/04/05 03:05:07;;;;;;;13.55;4.45;;;;;;;13.52;100.00;100874.13;5256064;28;20036;-80
2024/04/05 03:07:39;;;;;;;11.98;3.75;;;;;;;13.50;100.00;100870.00;5273399;28;20029;-79
2024/04/05 03:10:11;;;;;;;13.50;4.18;;;;;;;13.42;100.00;100854.13;5272856;28;20489;-80
2024/04/05 03:12:43;;;;;;;17.15;4.55;;;;;;;13.59;100.00;100872.56;5272318;28;20032;-79
2024/04/05 03:15:15;;;;;;;16.10;4.93;;;;;;;13.62;100.00;100866.19;5275137;28;20412;-79
2024/04/05 03:17:46;;;;;;;15.88;4.20;;;;;;;13.60;100.00;100862.88;5272338;28;20058;-78
2024/04/05 03:20:18;;;;;;;14.75;3.70;;;;;;;13.60;100.00;100852.34;5272826;28;20484;-80
2024/04/05 03:22:50;;;;;;;16.02;4.70;;;;;;;13.69;100.00;100863.78;5272831;28;20113;-79
2024/04/05 03:25:22;;;;;;;11.32;3.80;;;;;;;13.70;100.00;100850.47;5273673;28;20032;-79
2024/04/05 03:27:54;;;;;;;16.83;3.90;;;;;;;13.71;100.00;100846.00;5273189;28;20397;-79
2024/04/05 03:30:26;;;;;;;14.93;4.10;;;;;;;13.75;100.00;100853.50;5255652;28;20040;-80
2024/04/05 03:32:58;;;;;;;10.40;3.13;;;;;;;13.69;100.00;100838.28;5271145;28;20047;-79
2024/04/05 03:35:30;;;;;;;15.00;3.58;;;;;;;13.82;100.00;100848.41;5272311;28;20059;-79
2024/04/05 03:38:02;;;;;;;15.20;4.35;;;;;;;13.79;100.00;100841.66;5270832;28;20032;-80
2024/04/05 03:40:41;;;;;;;11.85;3.97;;;;;;;13.96;100.00;100837.34;5270909;28;20036;-79
2024/04/05 03:43:13;;;;;;;11.98;3.60;;;;;;;13.78;100.00;100826.81;5271487;28;20029;-79
2024/04/05 03:45:44;;;;;;;10.75;3.15;;;;;;;13.85;100.00;100835.78;5270204;28;20050;-79
2024/04/05 03:48:16;;;;;;;10.45;3.42;;;;;;;13.91;100.00;100831.72;5272135;28;20032;-79
2024/04/05 03:50:49;;;;;;;16.40;4.65;;;;;;;13.90;100.00;100818.69;5270133;28;20028;-79
2024/04/05 03:53:21;;;;;;;;;;;;;;;14.64;100.00;100820.06;5272411;28;20043;-79
2024/04/05 03:55:56;;;;;;;11.15;3.75;;;;;;;14.06;100.00;100813.56;5254146;28;19912;-79
2024/04/05 03:58:28;;;;;;;11.63;3.88;;;;;;;13.94;100.00;100799.81;5271885;28;20032;-79
2024/04/05 04:01:02;;;;;;;15.85;3.55;;;;;;;13.84;100.00;100785.91;5269504;28;20498;-79
2024/04/05 04:03:33;;;;;;;11.27;3.30;;;;;;;13.90;100.00;100797.63;5273460;28;20036;-79
2024/04/05 04:06:05;;;;;;;16.23;3.67;;;;;;;13.89;100.00;100815.25;5272277;28;20045;-79
2024/04/05 04:08:37;;;;;;;11.93;3.60;;;;;;;13.91;100.00;100820.38;5271989;28;20044;-80
2024/04/05 04:11:09;;;;;;;9.15;2.85;;;;;;;13.84;100.00;100807.81;5272944;28;20401;-80
2024/04/05 04:13:41;;;;;;;11.23;3.75;;;;;;;13.73;100.00;100791.41;5255489;28;20040;-79
2024/04/05 04:16:13;;;;;;;11.18;3.63;;;;;;;13.84;100.00;100797.28;5253207;28;20040;-79
2024/04/05 04:18:47;;;;;;;18.10;3.53;;;;;;;13.85;100.00;100801.53;5272031;28;20033;-79
2024/04/05 04:21:19;;;;;;;11.38;3.42;;;;;;;13.82;100.00;100804.47;5268726;28;20037;-79
2024/04/05 04:23:52;;;;;;;18.35;4.18;;;;;;;13.71;100.00;100793.34;5269874;28;20055;-79
2024/04/05 04:26:24;;;;;;;12.40;3.40;;;;;;;13.82;100.00;100812.38;5252587;28;20044;-79
2024/04/05 04:28:59;;;;;;;7.78;3.03;;;;;;;13.81;100.00;100815.19;5271586;28;20577;-79
2024/04/05 04:31:31;;;;;;;11.75;3.40;;;;;;;13.84;100.00;100814.88;5270839;28;20043;-79
2024/04/05 04:34:03;;;;;;;7.40;2.20;;;;;;;13.82;100.00;100807.13;5270857;28;20497;-80
2024/04/05 04:36:35;;;;;;;9.77;3.10;;;;;;;13.92;100.00;100811.47;5251484;28;20040;-79
2024/04/05 04:39:08;;;;;;;11.25;3.17;;;;;;;13.87;100.00;100802.22;5270903;28;20032;-79
2024/04/05 04:41:40;;;;;;;10.38;2.90;;;;;;;13.90;100.00;100803.72;5270977;28;20036;-80
2024/04/05 04:44:12;;;;;;;9.38;2.63;;;;;;;13.91;100.00;100800.13;5275584;28;20401;-80
2024/04/05 04:46:44;;;;;;;8.77;2.58;;;;;;;14.01;100.00;100800.03;5273636;28;20028;-80
2024/04/05 04:49:16;;;;;;;10.68;3.10;;;;;;;13.98;100.00;100789.78;5274831;28;20029;-80
2024/04/05 04:51:48;;;;;;;8.80;2.88;;;;;;;14.01;100.00;100800.03;5276131;28;20028;-80
2024/04/05 04:54:20;;;;;;;10.65;3.10;;;;;;;13.97;100.00;100798.66;5276105;28;20020;-80
2024/04/05 04:56:52;;;;;;;9.93;3.08;;;;;;;14.00;100.00;100793.94;5273994;28;20036;-80
2024/04/05 04:59:28;;;;;;;11.23;2.72;;;;;;;14.02;100.00;100794.63;5275139;28;20400;-80
2024/04/05 05:02:00;;;;;;;10.70;2.60;;;;;;;14.05;100.00;100801.34;5274218;28;20064;-80
2024/04/05 05:04:32;;;;;;;9.35;2.40;;;;;;;14.06;100.00;100795.97;5276419;28;20032;-80
2024/04/05 05:07:06;;;;;;;12.40;3.30;;;;;;;14.09;100.00;100797.44;5273865;28;20040;-80
2024/04/05 05:09:39;;;;;;;9.27;2.80;;;;;;;14.15;100.00;100780.19;5273466;28;20063;-80
2024/04/05 05:12:10;;;;;;;12.05;2.70;;;;;;;14.14;100.00;100784.66;5274696;28;20020;-80
2024/04/05 05:14:42;;;;;;;8.88;3.00;;;;;;;14.18;100.00;100769.34;5276407;28;20512;-80
2024/04/05 05:17:14;;;;;;;7.57;2.38;;;;;;;14.11;100.00;100756.78;5274236;28;20036;-80
2024/04/05 05:19:46;;;;;;;10.80;3.28;;;;;;;14.16;100.00;100760.78;5273717;28;20036;-81
2024/04/05 05:22:18;;;;;;;11.98;3.17;;;;;;;14.18;100.00;100759.66;5273425;28;20034;-80
2024/04/05 05:24:50;;;;;;;8.57;2.60;;;;;;;14.16;100.00;100735.25;5272636;28;20032;-80
2024/04/05 05:27:22;;;;;;;9.88;2.90;;;;;;;14.24;100.00;100726.56;5278199;28;20531;-81
2024/04/05 05:29:54;;;;;;;10.63;2.75;;;;;;;14.28;100.00;100734.03;5279525;28;20028;-80
2024/04/05 05:32:26;;;;;;;11.25;2.65;;;;;;;14.32;100.00;100716.09;5280417;28;20647;-80
2024/04/05 05:34:58;;;;;;;11.35;2.35;;;;;;;14.29;100.00;100717.22;5280121;28;20043;-81
2024/04/05 05:37:30;;;;;;;9.10;2.90;;;;;;;14.32;100.00;100721.34;5273683;28;20056;-80
2024/04/05 05:40:04;;;;;;;10.68;2.60;;;;;;;14.42;100.00;100718.59;5270693;28;20035;-80
2024/04/05 05:42:36;;;;;;;9.25;2.63;;;;;;;14.36;100.00;100710.34;5272499;28;20029;-79
2024/04/05 05:45:07;;;;;;;11.60;2.90;;;;;;;14.44;100.00;100717.44;5277879;28;20043;-81
2024/04/05 05:47:39;;;;;;;7.57;2.72;;;;;;;14.34;100.00;100680.66;5277147;28;20032;-80
2024/04/05 05:50:11;;;;;;;10.95;2.90;;;;;;;14.50;100.00;100687.00;5273969;28;20090;-80
2024/04/05 05:52:43;;;;;;;8.98;2.45;;;;;;;14.54;100.00;100667.25;5275059;28;20383;-80
2024/04/05 05:55:16;;;;;;;9.07;2.53;;;;;;;14.53;100.00;100668.25;5279345;28;20032;-80
2024/04/05 05:57:48;;;;;;;9.15;2.17;;;;;;;14.58;100.00;100661.53;5279359;28;20024;-80
2024/04/05 06:00:20;;;;;;;8.82;2.72;;;;;;;14.60;100.00;100658.72;5276622;28;20036;-83
2024/04/05 06:02:52;;;;;;;9.05;2.78;;;;;;;14.66;100.00;100683.59;5274849;28;20041;-79
2024/04/05 06:05:24;;;;;;;8.02;2.92;;;;;;;14.64;100.00;100678.50;5273259;28;20032;-80
2024/04/05 06:07:56;;;;;;;6.18;2.20;;;;;;;14.67;100.00;100674.72;5274367;28;20032;-80
2024/04/05 06:10:28;;;;;;;10.45;2.97;;;;;;;14.70;100.00;100683.13;5274363;28;20115;-81
2024/04/05 06:13:01;;;;;;;9.23;2.65;;;;;;;14.74;100.00;100681.81;5273852;28;20036;-79
2024/04/05 06:15:33;;;;;;;;;;;;;;;15.47;100.00;100683.69;5274642;28;20035;-80
2024/04/05 06:18:05;;;;;;;9.88;2.20;;;;;;;14.86;100.00;100679.72;5270989;28;20373;-79
2024/04/05 06:20:36;;;;;;;7.43;3.03;;;;;;;14.83;100.00;100677.38;5268393;28;20040;-80
2024/04/05 06:23:08;;;;;;;7.20;2.17;;;;;;;14.83;100.00;100680.84;5273328;28;20477;-80
2024/04/05 06:25:40;;;;;;;7.07;2.08;;;;;;;14.88;100.00;100668.97;5272688;28;20043;-80
2024/04/05 06:28:12;;;;;;;7.80;2.40;;;;;;;14.92;100.00;100660.56;5273279;28;20028;-80
2024/04/05 06:30:44;;;;;;;7.13;2.25;;;;;;;14.92;100.00;100651.84;5274137;28;20036;-81
2024/04/05 06:33:16;;;;;;;7.40;2.30;;;;;;;14.95;100.00;100635.69;5276422;28;20504;-81
2024/04/05 06:36:02;;;;;;;7.32;2.08;;;;;;;15.27;100.00;100648.09;5276787;28;20028;-80
2024/04/05 06:38:33;;;;;;;7.88;2.20;;;;;;;15.04;100.00;100638.19;5277453;28;20047;-80
2024/04/05 06:41:05;;;;;;;10.15;3.05;;;;;;;15.12;100.00;100628.63;5274302;28;20024;-81
2024/04/05 06:43:38;;;;;;;10.25;3.05;;;;;;;15.16;100.00;100622.84;5273099;28;20060;-80
2024/04/05 06:46:10;;;;;;;9.50;2.83;;;;;;;15.21;100.00;100624.97;5276990;28;20485;-81
2024/04/05 06:48:43;;;;;;;7.28;2.55;;;;;;;15.26;100.00;100612.94;5274501;28;20504;-80
2024/04/05 06:51:16;;;;;;;6.85;2.53;;;;;;;15.31;100.00;100604.53;5274659;28;20036;-80
2024/04/05 06:53:48;;;;;;;;;;;;;;;15.98;100.00;100602.41;5274621;28;20031;-81
2024/04/05 06:56:20;;;;;;;7.38;2.28;;;;;;;15.44;100.00;100606.66;5275535;28;20771;-81
2024/04/05 06:58:52;;;;;;;9.40;2.88;;;;;;;15.44;100.00;100612.75;5275254;28;20040;-81
2024/04/05 07:01:24;;;;;;;8.10;2.63;;;;;;;15.47;100.00;100630.09;5278405;28;20036;-81
2024/04/05 07:03:56;;;;;;;10.25;3.00;;;;;;;15.46;100.00;100629.25;5276851;28;20039;-81
2024/04/05 07:06:30;;;;;;;6.93;2.25;;;;;;;15.49;100.00;100618.38;5273505;28;20036;-80
2024/04/05 07:09:05;;;;;;;5.82;2.00;;;;;;;15.51;100.00;100623.47;5276670;28;20379;-80
2024/04/05 07:11:37;;;;;;;8.43;2.50;;;;;;;15.54;100.00;100621.31;5274935;28;20248;-81
2024/04/05 07:14:09;;;;;;;10.50;2.83;;;;;;;15.53;100.00;100621.47;5273034;28;20384;-81
2024/04/05 07:16:43;;;;;;;8.85;2.50;;;;;;;15.58;100.00;100613.91;5273015;28;20044;-80
2024/04/05 07:19:18;;;;;;;6.80;2.55;;;;;;;15.57;100.00;100593.78;5275689;28;20671;-80
2024/04/05 07:21:50;;;;;;;8.05;2.40;;;;;;;15.56;100.00;100586.81;5275043;28;20039;-80
2024/04/05 07:24:22;;;;;;;6.88;2.15;;;;;;;15.61;100.00;100589.78;5274341;28;20029;-80
2024/04/05 07:26:54;;;;;;;6.80;2.20;;;;;;;15.64;100.00;100578.88;5273250;28;20032;-81
2024/04/05 07:29:26;;;;;;;7.07;2.35;;;;;;;15.65;100.00;100574.44;5272084;28;20474;-80
2024/04/05 07:31:58;;;;;;;7.40;2.10;;;;;;;15.68;100.00;100572.31;5271670;28;20032;-80
2024/04/05 07:34:31;;;;;;;5.40;2.00;;;;;;;15.71;100.00;100563.22;5275783;28;20029;-80
2024/04/05 07:37:03;;;;;;;8.07;2.33;;;;;;;15.71;100.00;100568.50;5256632;28;20291;-80
2024/04/05 07:39:39;;;;;;;7.88;2.13;;;;;;;15.66;100.00;100555.81;5273828;28;20051;-80
2024/04/05 07:42:10;;;;;;;7.72;2.08;;;;;;;15.71;100.00;100550.00;5273538;28;20670;-81
2024/04/05 07:44:45;;;;;;;5.88;2.40;;;;;;;15.70;100.00;100548.38;5272521;28;20087;-80
2024/04/05 07:47:17;;;;;;;7.85;2.03;;;;;;;15.69;100.00;100552.81;5273559;28;20040;-81
2024/04/05 07:49:52;;;;;;;7.85;2.33;;;;;;;15.70;100.00;100556.28;5272178;28;20393;-80
2024/04/05 07:52:24;;;;;;;6.75;2.00;;;;;;;15.70;100.00;100532.53;5272882;28;20039;-80
2024/04/05 07:54:56;;;;;;;4.55;1.80;;;;;;;15.65;100.00;100530.41;5255157;28;20036;-80
2024/04/05 07:57:28;;;;;;;7.10;2.40;;;;;;;15.62;100.00;100520.13;5272299;28;20056;-80
2024/04/05 08:00:00;;;;;;;6.25;2.22;;;;;;;15.68;100.00;100522.13;5271652;28;20397;-80
2024/04/05 08:02:32;;;;;;;7.60;1.92;;;;;;;15.68;100.00;100527.41;5273225;28;20032;-81
2024/04/05 08:05:04;;;;;;;6.85;2.40;;;;;;;15.80;100.00;100519.94;5274910;28;20040;-80
2024/04/05 08:07:36;;;;;;;5.97;2.30;;;;;;;15.76;100.00;100519.47;5272531;28;20027;-80
2024/04/05 08:10:11;;;;;;;5.50;1.90;;;;;;;15.84;100.00;100520.41;5274241;28;20451;-80
2024/04/05 08:12:43;;;;;;;5.28;1.90;;;;;;;15.89;100.00;100508.31;5254362;28;20063;-79
2024/04/05 08:15:15;;;;;;;8.77;2.33;;;;;;;15.97;100.00;100513.56;5272972;28;20059;-79
2024/04/05 08:17:49;;;;;;;4.82;2.10;;;;;;;15.97;100.00;100513.56;5274586;28;20106;-79
2024/04/05 08:20:21;;;;;;;7.00;2.10;;;;;;;16.07;100.00;100510.72;5278776;28;20037;-80
2024/04/05 08:22:53;;;;;;;6.75;1.95;;;;;;;16.10;100.00;100504.25;5278730;28;20032;-80
2024/04/05 08:25:25;;;;;;;5.75;1.90;;;;;;;16.09;100.00;100498.13;5276597;28;20035;-80
2024/04/05 08:27:57;;;;;;;5.55;1.75;;;;;;;16.14;100.00;100489.69;5275796;28;20028;-79
2024/04/05 08:30:29;;;;;;;7.35;1.88;;;;;;;16.16;100.00;100495.63;5276817;28;20477;-80
2024/04/05 08:33:03;;;;;;;6.03;1.58;;;;;;;16.16;100.00;100514.94;5275883;28;20039;-79
2024/04/05 08:35:36;;;;;;;5.57;1.80;;;;;;;16.23;100.00;100523.00;5273861;28;20035;-80
2024/04/05 08:38:10;;;;;;;5.18;1.50;;;;;;;16.24;100.00;100541.31;5274323;28;20420;-79
2024/04/05 08:40:42;;;;;;;4.30;1.40;;;;;;;16.09;100.00;100503.41;5275222;28;20059;-79
2024/04/05 08:43:17;;;;;;;7.30;2.03;;;;;;;16.27;100.00;100519.00;5273945;28;20032;-79
2024/04/05 08:45:49;;;;;;;5.43;1.42;;;;;;;16.08;100.00;100557.28;5274344;28;20029;-79
2024/04/05 08:48:22;;;;;;;5.97;2.00;;;;;;;16.13;100.00;100569.97;5273725;28;20035;-79
2024/04/05 08:50:54;;;;;;;6.22;1.92;;;;;;;16.16;100.00;100578.38;5273972;28;20041;-79
2024/04/05 08:53:26;;;;;;;7.78;2.03;;;;;;;16.15;100.00;100575.91;5257377;28;21076;-80
2024/04/05 08:55:59;;;;;;;5.43;1.98;;;;;;;16.17;100.00;100592.41;5275080;28;20044;-79
2024/04/05 08:58:31;;;;;;;5.57;1.60;;;;;;;16.10;100.00;100599.38;5274418;28;20232;-79
2024/04/05 09:01:04;;;;;;;6.65;1.48;;;;;;;16.14;100.00;100606.81;5274574;28;20501;-79
2024/04/05 09:03:36;;;;;;;4.68;1.65;;;;;;;16.11;100.00;100583.38;5276201;28;20055;-79
2024/04/05 09:06:08;;;;;;;7.57;1.90;;;;;;;16.20;100.00;100587.59;5276080;28;21410;-81
2024/04/05 09:08:52;;;;;;;3.85;1.08;;;;;;;16.26;100.00;100576.34;5275766;28;20040;-80
2024/04/05 09:11:24;;;;;;;4.38;1.50;;;;;;;16.19;100.00;100591.25;5278383;28;20043;-80
2024/04/05 09:13:59;;;;;;;5.18;1.50;;;;;;;16.23;100.00;100602.31;5278509;28;20020;-81
2024/04/05 09:16:32;;;;;;;6.90;1.58;;;;;;;16.26;100.00;100584.28;5279964;28;20025;-81
2024/04/05 09:19:09;;;;;;;3.15;1.02;;;;;;;16.31;100.00;100589.03;5279926;28;20028;-80
2024/04/05 09:21:44;;;;;;;4.85;1.10;;;;;;;16.35;100.00;100592.97;5281624;28;20028;-81
2024/04/05 09:24:16;;;;;;;3.97;1.50;;;;;;;16.38;100.00;100583.88;5280979;28;20032;-80
2024/04/05 09:27:09;;;;;;;3.13;1.23;;;;;;;16.70;100.00;100577.53;5279662;28;20283;-79
2024/04/05 09:29:41;;;;;;;4.75;1.23;;;;;;;16.47;100.00;100596.03;5280358;28;20586;-81
2024/04/05 09:32:19;;;;;;;3.13;1.07;;;;;;;16.60;100.00;100603.44;5279399;28;20035;-80
2024/04/05 09:34:53;;;;;;;8.27;1.67;;;;;;;16.47;100.00;100593.41;5275191;28;20032;-80
2024/04/05 09:37:26;;;;;;;3.53;1.13;;;;;;;16.48;100.00;100597.72;5273373;28;20033;-80
2024/04/05 09:39:58;;;;;;;4.50;1.40;;;;;;;16.47;100.00;100594.22;5273295;28;20037;-79
2024/04/05 09:42:31;;;;;;;3.57;1.20;;;;;;;16.58;100.00;100578.97;5274996;28;20039;-80
2024/04/05 09:45:03;;;;;;;4.30;1.38;;;;;;;16.52;100.00;100560.16;5274741;28;20031;-79
2024/04/05 09:47:38;;;;;;;3.60;1.40;;;;;;;16.61;100.00;100545.06;5275808;28;20028;-80
2024/04/05 09:50:10;;;;;;;2.67;1.10;;;;;;;16.61;100.00;100542.41;5256928;28;20036;-80
2024/04/05 09:52:44;;;;;;;4.35;1.20;;;;;;;16.66;100.00;100536.56;5277022;28;20366;-79
2024/04/05 09:55:17;;;;;;;5.50;1.70;;;;;;;16.77;100.00;100544.13;5277069;28;20047;-80
2024/04/05 09:57:49;;;;;;;3.60;1.00;;;;;;;16.95;100.00;100541.19;5275767;28;20040;-80
2024/04/05 10:00:24;;;;;;;4.68;1.20;;;;;;;17.17;100.00;100519.13;5277343;28;20048;-79
2024/04/05 10:02:58;;;;;;;3.33;0.95;;;;;;;17.44;100.00;100536.22;5278349;28;20489;-80
2024/04/05 10:05:34;;;;;;;3.00;1.02;;;;;;;17.68;100.00;100532.44;5275682;28;20035;-80
2024/04/05 10:08:16;;;;;;;3.92;1.20;;;;;;;17.90;100.00;100528.06;5274169;28;20389;-79
2024/04/05 10:10:48;;;;;;;2.70;1.05;;;;;;;18.04;100.00;100530.91;5275897;28;20055;-80
2024/04/05 10:13:26;;;;;;;3.28;1.25;;;;;;;18.23;100.00;100536.41;5267657;22;20045;-77
2024/04/05 10:16:00;;;;;;;2.90;1.20;;;;;;;18.31;100.00;100569.94;5249208;28;20060;-77
2024/04/05 10:18:39;;;;;;;4.85;1.25;;;;;;;18.39;100.00;100555.75;5253890;28;20115;-77
2024/04/05 10:21:12;;;;;;;5.68;1.48;;;;;;;18.48;100.00;100554.59;5250835;28;20055;-77
2024/04/05 10:23:44;;;;;;;3.97;1.88;;;;;;;18.58;100.00;100541.03;5252455;28;20398;-77
2024/04/05 10:26:17;;;;;;;4.38;1.52;;;;;;;18.65;100.00;100548.06;5250574;28;20481;-75
2024/04/05 10:28:59;;;;;;;3.92;1.25;;;;;;;18.95;100.00;100539.97;5248856;28;20107;-78
2024/04/05 10:31:36;;;;;;;3.83;0.93;;;;;;;18.94;100.00;100541.81;5249471;28;20033;-78
2024/04/05 10:34:08;;;;;;;2.75;0.90;;;;;;;18.75;100.00;100555.69;5250799;28;20052;-76
2024/04/05 10:36:40;;;;;;;2.20;1.27;;;;;;;18.79;100.00;100538.41;5252396;28;20386;-76
2024/04/05 10:39:17;;;;;;;4.10;1.50;;;;;;;18.83;100.00;100537.03;5251551;28;20043;-78
2024/04/05 10:41:49;;;;;;;2.92;1.00;;;;;;;18.92;100.00;100530.53;5252729;28;20025;-77
2024/04/05 10:44:21;;;;;;;3.25;1.13;;;;;;;18.97;100.00;100545.88;5251154;28;20036;-76
2024/04/05 10:46:53;;;;;;;3.60;1.00;;;;;;;18.93;100.00;100539.31;5248271;28;20037;-76
2024/04/05 10:49:25;;;;;;;4.20;1.35;;;;;;;18.93;100.00;100547.28;5252896;28;20044;-78
2024/04/05 10:51:58;;;;;;;2.38;1.13;;;;;;;18.96;100.00;100558.34;5251920;28;20405;-77
2024/04/05 10:54:30;;;;;;;3.88;1.30;;;;;;;18.92;100.00;100556.28;5255827;28;20036;-78
2024/04/05 10:57:02;;;;;;;2.70;1.10;;;;;;;18.92;100.00;100546.47;5254129;28;20033;-76
2024/04/05 10:59:34;;;;;;;3.97;1.30;;;;;;;18.91;100.00;100549.34;5257775;28;20422;-76
2024/04/05 11:02:06;;;;;;;2.85;1.17;;;;;;;18.91;100.00;100544.84;5269541;28;20041;-78
2024/04/05 11:04:39;;;;;;;3.63;1.10;;;;;;;18.82;100.00;100535.34;5255082;28;20020;-76
2024/04/05 11:07:16;;;;;;;2.78;1.40;;;;;;;19.03;100.00;100557.59;5253572;28;20310;-77
2024/04/05 11:09:48;;;;;;;3.47;1.27;;;;;;;18.89;100.00;100546.03;5253088;28;20045;-75
2024/04/05 11:12:20;;;;;;;4.25;1.45;;;;;;;18.95;100.00;100558.56;5269074;28;20044;-77
2024/04/05 11:15:03;;;;;;;2.53;1.38;;;;;;;19.11;100.00;100550.28;5254579;28;20393;-77
2024/04/05 11:17:35;;;;;;;3.10;1.20;;;;;;;18.91;100.00;100549.34;5251607;28;20419;-78
2024/04/05 11:20:14;;;;;;;2.45;1.15;;;;;;;19.01;100.00;100543.66;5255505;28;20037;-78
2024/04/05 11:22:46;;;;;;;4.13;1.88;;;;;;;18.90;100.00;100545.00;5254189;28;20049;-75
2024/04/05 11:25:20;;;;;;;2.83;1.23;;;;;;;19.08;100.00;100552.50;5251388;28;20029;-74
2024/04/05 11:27:53;;;;;;;2.97;1.23;;;;;;;18.96;100.00;100549.56;5251335;28;20044;-77
2024/04/05 11:30:25;;;;;;;3.95;1.23;;;;;;;19.04;100.00;100553.91;5252347;28;20508;-77
2024/04/05 11:32:57;;;;;;;3.58;1.40;;;;;;;19.16;100.00;100553.19;5248835;28;20025;-76
2024/04/05 11:35:29;;;;;;;3.83;1.83;;;;;;;19.14;100.00;100565.03;5252484;28;20478;-77
2024/04/05 11:38:01;;;;;;;2.28;1.15;;;;;;;19.05;100.00;100550.25;5246713;28;20044;-74
2024/04/05 11:40:33;;;;;;;4.40;1.60;;;;;;;18.77;100.00;100513.88;5246643;28;20389;-77